Time;durP1;ratioP1;P1;durP2;ratioP2;P2;SDS_P1;SDS_P2;PMS_P1;PMS_P2;Temp;Humidity;BMP_temperature;BMP_pressure;BME280_temperature;BME280_humidity;BME280_pressure;Samples;Min_cycle;Max_cycle;Signal;HPM_P1;HPM_P2
2024/01/03 00:00:28;;;;;;;4.45;2.47;;;19.40;60.70;;;;;;4977715;28;20118;-61
2024/01/03 00:02:55;;;;;;;5.78;2.80;;;19.30;60.70;;;;;;4992259;28;20034;-61
2024/01/03 00:05:23;;;;;;;4.07;2.42;;;19.30;60.80;;;;;;4991440;28;20397;-60
2024/01/03 00:07:52;;;;;;;6.30;2.80;;;19.30;60.80;;;;;;4991759;28;20034;-63
2024/01/03 00:10:46;;;;;;;3.72;2.30;;;19.30;60.80;;;;;;4974688;28;20023;-62
2024/01/03 00:15:59;;;;;;;4.47;2.40;;;19.30;60.80;;;;;;4991076;28;20034;-62
2024/01/03 00:18:49;;;;;;;5.05;2.33;;;19.30;60.80;;;;;;4991428;28;20054;-61
2024/01/03 00:21:19;;;;;;;4.00;2.53;;;19.30;60.80;;;;;;4991681;28;20030;-62
2024/01/03 00:23:48;;;;;;;5.22;2.60;;;19.30;60.90;;;;;;4991693;28;20065;-64
2024/01/03 00:26:15;;;;;;;5.05;2.40;;;19.30;60.80;;;;;;4991211;28;20022;-63
2024/01/03 00:28:41;;;;;;;5.03;2.55;;;19.30;61.10;;;;;;4982567;28;20562;-63
2024/01/03 00:31:09;;;;;;;4.28;2.05;;;19.30;60.90;;;;;;4981804;28;20030;-63
2024/01/03 00:33:41;;;;;;;4.10;2.25;;;19.30;61.00;;;;;;4980553;28;20031;-63
2024/01/03 00:36:09;;;;;;;5.55;2.20;;;19.30;61.00;;;;;;4985112;28;20129;-64
2024/01/03 00:38:38;;;;;;;6.82;2.20;;;19.40;61.00;;;;;;4982817;28;20065;-64
2024/01/03 00:41:04;;;;;;;4.07;2.10;;;19.30;60.80;;;;;;4990982;28;20065;-63
2024/01/03 00:43:30;;;;;;;4.88;2.10;;;19.30;60.80;;;;;;4990870;28;20037;-64
2024/01/03 00:45:56;;;;;;;6.70;2.33;;;19.30;60.90;;;;;;4990497;28;20426;-63
2024/01/03 00:48:22;;;;;;;4.35;2.55;;;19.30;61.00;;;;;;4990956;28;20026;-63
2024/01/03 00:50:48;;;;;;;6.25;2.55;;;19.30;61.00;;;;;;4990600;28;20134;-63
2024/01/03 00:53:16;;;;;;;7.03;2.47;;;19.20;61.00;;;;;;4973484;28;20374;-63
2024/01/03 00:55:42;;;;;;;5.22;2.30;;;19.20;60.90;;;;;;4989949;28;20050;-63
2024/01/03 00:58:09;;;;;;;4.22;2.25;;;19.20;60.90;;;;;;4990716;28;20123;-63
2024/01/03 01:00:36;;;;;;;5.78;2.42;;;19.20;60.90;;;;;;4990875;28;20395;-63
2024/01/03 01:03:03;;;;;;;5.20;2.22;;;19.20;60.90;;;;;;4990847;28;20068;-63
2024/01/03 01:05:29;;;;;;;7.03;2.70;;;19.20;60.90;;;;;;4990692;28;20026;-63
2024/01/03 01:07:55;;;;;;;4.50;2.30;;;19.20;60.90;;;;;;4990647;28;20022;-63
2024/01/03 01:10:20;;;;;;;3.72;2.47;;;19.20;61.10;;;;;;4990359;28;20026;-63
2024/01/03 01:12:46;;;;;;;22.65;2.60;;;19.30;60.90;;;;;;4989074;28;20034;-61
2024/01/03 01:15:12;;;;;;;20.98;2.53;;;19.40;61.70;;;;;;4972761;28;20041;-60
2024/01/03 01:17:38;;;;;;;9.38;2.22;;;19.40;62.40;;;;;;4990189;28;20274;-60
2024/01/03 01:20:04;;;;;;;12.52;2.35;;;19.30;61.60;;;;;;4990902;28;20437;-59
2024/01/03 01:22:30;;;;;;;8.35;2.28;;;19.30;61.20;;;;;;4992199;28;20036;-59
2024/01/03 01:24:56;;;;;;;13.95;2.47;;;19.30;61.20;;;;;;4958548;28;20409;-55
2024/01/03 01:27:21;;;;;;;10.85;2.08;;;19.40;61.60;;;;;;4992009;28;20129;-58
2024/01/03 01:29:48;;;;;;;18.42;2.40;;;19.40;61.10;;;;;;4992067;28;20058;-57
2024/01/03 01:32:13;;;;;;;11.48;3.35;;;19.40;61.10;;;;;;4992282;28;20101;-59
2024/01/03 01:34:39;;;;;;;12.23;2.88;;;19.40;61.10;;;;;;4991879;28;20105;-60
2024/01/03 01:37:05;;;;;;;13.10;3.10;;;19.40;61.10;;;;;;4991440;28;20026;-58
2024/01/03 01:39:31;;;;;;;7.80;2.70;;;19.40;61.20;;;;;;4974721;28;20026;-60
2024/01/03 01:41:56;;;;;;;9.93;2.97;;;19.30;61.20;;;;;;4992338;28;20022;-59
2024/01/03 01:44:22;;;;;;;16.50;2.88;;;19.40;61.20;;;;;;4992112;28;20058;-61
2024/01/03 01:46:48;;;;;;;14.30;3.47;;;19.30;61.10;;;;;;4992476;28;20049;-60
2024/01/03 01:49:18;;;;;;;6.45;2.33;;;19.40;61.20;;;;;;4993299;28;20512;-57
2024/01/03 01:51:45;;;;;;;8.65;2.08;;;19.40;60.90;;;;;;4994337;28;20077;-59
2024/01/03 01:54:13;;;;;;;10.77;2.80;;;19.30;60.80;;;;;;5011931;28;20494;-59
2024/01/03 01:56:40;;;;;;;12.43;2.55;;;19.40;60.90;;;;;;5011828;28;20026;-58
2024/01/03 01:59:08;;;;;;;5.70;2.22;;;19.40;60.80;;;;;;4994223;28;20065;-58
2024/01/03 02:01:34;;;;;;;8.90;2.40;;;19.40;60.70;;;;;;4977897;28;20080;-59
2024/01/03 02:04:04;;;;;;;4.43;1.90;;;19.30;60.60;;;;;;4994084;28;20032;-59
2024/01/03 02:06:31;;;;;;;7.72;2.30;;;19.30;60.60;;;;;;4994861;28;20068;-57
2024/01/03 02:08:56;;;;;;;7.68;2.50;;;19.30;60.60;;;;;;4998191;28;20045;-53
2024/01/03 02:11:22;;;;;;;6.35;2.03;;;19.30;60.60;;;;;;4998242;28;20033;-58
2024/01/03 02:13:48;;;;;;;6.78;1.95;;;19.30;60.60;;;;;;4998235;28;20025;-58
2024/01/03 02:16:15;;;;;;;3.80;1.92;;;19.30;60.60;;;;;;4997811;28;20034;-58
2024/01/03 02:18:43;;;;;;;7.50;2.20;;;19.30;60.60;;;;;;4997792;28;20049;-59
2024/01/03 02:21:18;;;;;;;6.57;1.90;;;19.30;60.60;;;;;;5015579;28;20512;-57
2024/01/03 02:23:44;;;;;;;5.32;2.10;;;19.30;60.60;;;;;;5015712;28;20030;-58
2024/01/03 02:26:10;;;;;;;7.90;2.15;;;19.30;60.60;;;;;;5015143;28;20032;-58
2024/01/03 02:28:36;;;;;;;5.45;2.03;;;19.30;60.60;;;;;;5015289;28;20022;-58
2024/01/03 02:31:02;;;;;;;6.75;1.95;;;19.30;60.60;;;;;;5015390;28;20026;-59
2024/01/03 02:33:28;;;;;;;7.07;1.90;;;19.30;60.60;;;;;;5015448;28;20068;-58
2024/01/03 02:35:54;;;;;;;5.43;1.90;;;19.30;60.60;;;;;;5015018;28;20495;-58
2024/01/03 02:38:21;;;;;;;3.85;1.92;;;19.30;60.60;;;;;;5015430;28;20025;-57
2024/01/03 02:40:47;;;;;;;4.30;1.80;;;19.20;61.20;;;;;;5015169;28;20022;-55
2024/01/03 02:43:13;;;;;;;4.90;1.52;;;19.30;60.50;;;;;;5015106;28;20030;-58
2024/01/03 02:45:39;;;;;;;4.32;1.67;;;19.30;60.50;;;;;;5014753;28;20076;-59
2024/01/03 02:48:05;;;;;;;2.45;1.60;;;19.30;60.50;;;;;;4999768;28;20030;-56
2024/01/03 02:50:31;;;;;;;4.85;2.00;;;19.20;60.40;;;;;;4995864;28;20448;-59
2024/01/03 02:52:57;;;;;;;4.78;1.83;;;19.20;60.50;;;;;;4995454;28;20022;-59
2024/01/03 02:55:22;;;;;;;6.90;1.73;;;19.20;60.50;;;;;;4995055;28;20033;-59
2024/01/03 02:57:48;;;;;;;3.97;2.03;;;19.20;60.50;;;;;;4994813;28;20398;-57
2024/01/03 03:00:14;;;;;;;3.78;1.90;;;19.20;60.40;;;;;;4995251;28;20478;-59
2024/01/03 03:02:40;;;;;;;4.20;1.75;;;19.30;60.40;;;;;;4995469;28;20030;-57
2024/01/03 03:05:06;;;;;;;7.10;2.20;;;19.20;60.30;;;;;;4994820;28;20132;-55
2024/01/03 03:07:32;;;;;;;2.88;1.60;;;19.20;60.40;;;;;;4995138;28;20048;-58
2024/01/03 03:09:58;;;;;;;5.07;1.85;;;19.20;60.40;;;;;;4995099;28;20030;-56
2024/01/03 03:12:24;;;;;;;2.50;1.50;;;19.20;60.40;;;;;;4995071;28;20053;-59
2024/01/03 03:14:50;;;;;;;2.80;1.50;;;19.20;60.40;;;;;;4994620;28;20029;-58
2024/01/03 03:17:16;;;;;;;2.92;1.58;;;19.20;60.40;;;;;;4994999;28;20060;-58
2024/01/03 03:19:43;;;;;;;6.03;1.55;;;19.20;60.40;;;;;;4994957;28;20026;-59
2024/01/03 03:22:09;;;;;;;3.38;1.60;;;19.20;60.30;;;;;;4994864;28;20053;-59
2024/01/03 03:24:34;;;;;;;5.53;1.67;;;19.20;60.20;;;;;;4994419;28;20061;-59
2024/01/03 03:27:00;;;;;;;3.45;1.48;;;19.20;60.20;;;;;;4994744;28;20030;-58
2024/01/03 03:29:26;;;;;;;2.28;1.42;;;19.20;60.20;;;;;;4995168;28;20027;-59
2024/01/03 03:31:51;;;;;;;4.47;1.70;;;19.20;60.20;;;;;;4994661;28;20023;-59
2024/01/03 03:34:18;;;;;;;5.57;1.70;;;19.20;60.20;;;;;;4994521;28;20117;-58
2024/01/03 03:36:44;;;;;;;3.63;1.30;;;19.20;60.20;;;;;;4994475;28;20073;-59
2024/01/03 03:39:10;;;;;;;6.80;1.50;;;19.20;60.10;;;;;;4994648;28;20029;-59
2024/01/03 03:41:37;;;;;;;4.80;1.70;;;19.20;60.10;;;;;;4994509;28;20022;-58
2024/01/03 03:44:03;;;;;;;5.10;1.65;;;19.20;60.00;;;;;;4994400;28;20031;-58
2024/01/03 03:46:29;;;;;;;3.25;1.50;;;19.20;60.00;;;;;;4994103;28;20026;-59
2024/01/03 03:48:54;;;;;;;2.95;1.50;;;19.20;60.10;;;;;;4994284;28;20038;-58
2024/01/03 03:51:20;;;;;;;2.78;1.67;;;19.20;60.10;;;;;;4994356;28;20076;-59
2024/01/03 03:53:46;;;;;;;4.07;1.60;;;19.20;60.10;;;;;;4994320;28;20486;-59
2024/01/03 03:56:22;;;;;;;3.58;1.52;;;19.20;60.10;;;;;;4993902;28;20124;-59
2024/01/03 03:58:47;;;;;;;1.55;1.40;;;19.20;60.10;;;;;;4994175;28;20077;-58
2024/01/03 04:01:13;;;;;;;2.47;1.50;;;19.20;60.10;;;;;;4994296;28;20575;-58
2024/01/03 04:03:39;;;;;;;3.80;1.30;;;19.20;60.10;;;;;;4994132;28;20367;-58
2024/01/03 04:06:05;;;;;;;3.17;1.50;;;19.20;60.10;;;;;;4993711;28;20030;-54
2024/01/03 04:08:30;;;;;;;2.50;1.48;;;19.20;60.60;;;;;;4993847;28;20085;-57
2024/01/03 04:10:56;;;;;;;2.08;1.40;;;19.20;60.10;;;;;;4993948;28;20029;-58
2024/01/03 04:13:22;;;;;;;3.28;1.50;;;19.20;60.00;;;;;;4993847;28;20110;-57
2024/01/03 04:15:48;;;;;;;2.22;1.50;;;19.20;60.10;;;;;;4993516;28;20034;-55
2024/01/03 04:18:14;;;;;;;3.83;1.40;;;19.20;60.00;;;;;;4993815;28;20026;-58
2024/01/03 04:20:40;;;;;;;1.90;1.33;;;19.20;60.00;;;;;;4993857;28;20402;-58
2024/01/03 04:23:05;;;;;;;2.92;1.35;;;19.20;60.10;;;;;;4993761;28;20113;-59
2024/01/03 04:25:31;;;;;;;2.17;1.40;;;19.20;60.00;;;;;;4993331;28;20030;-57
2024/01/03 04:27:57;;;;;;;3.70;1.48;;;19.20;60.00;;;;;;4993513;28;20049;-59
2024/01/03 04:30:22;;;;;;;1.77;1.30;;;19.20;60.00;;;;;;4992873;28;20069;-56
2024/01/03 04:32:48;;;;;;;3.38;1.60;;;19.20;60.00;;;;;;4993551;28;20034;-56
2024/01/03 04:35:14;;;;;;;2.75;1.50;;;19.20;60.00;;;;;;5011753;22;21238;-52
2024/01/03 04:37:40;;;;;;;2.53;1.60;;;19.20;59.90;;;;;;5032847;28;20065;-50
2024/01/03 04:40:06;;;;;;;4.78;1.40;;;19.20;59.80;;;;;;5032810;28;20030;-51
2024/01/03 04:42:32;;;;;;;1.52;1.20;;;19.20;59.80;;;;;;5032808;28;20520;-51
2024/01/03 04:44:58;;;;;;;2.70;1.30;;;19.20;59.80;;;;;;5032291;28;20022;-48
2024/01/03 04:47:24;;;;;;;2.33;1.40;;;19.20;59.80;;;;;;5032570;28;20500;-52
2024/01/03 04:49:49;;;;;;;2.20;1.40;;;19.20;59.70;;;;;;5032596;28;20405;-54
2024/01/03 04:52:15;;;;;;;2.33;1.30;;;19.20;59.80;;;;;;5032593;28;20152;-55
2024/01/03 04:54:41;;;;;;;1.65;1.27;;;19.20;59.70;;;;;;5032389;28;20071;-50
2024/01/03 04:57:07;;;;;;;3.03;1.52;;;19.20;59.60;;;;;;5032373;28;20055;-50
2024/01/03 04:59:33;;;;;;;5.40;1.42;;;19.20;59.70;;;;;;5032460;28;20525;-48
2024/01/03 05:01:58;;;;;;;3.45;1.48;;;19.20;59.70;;;;;;5032519;28;20025;-49
2024/01/03 05:04:24;;;;;;;2.65;1.42;;;19.20;59.60;;;;;;5032017;28;20111;-49
2024/01/03 05:06:51;;;;;;;1.85;1.30;;;19.30;59.70;;;;;;5032166;28;20056;-48
2024/01/03 05:09:17;;;;;;;3.33;1.48;;;19.30;59.60;;;;;;5032321;28;20535;-48
2024/01/03 05:11:43;;;;;;;2.45;1.20;;;19.30;59.60;;;;;;5032208;28;20025;-47
2024/01/03 05:14:09;;;;;;;4.63;1.73;;;19.30;59.60;;;;;;5032218;28;20025;-48
2024/01/03 05:16:34;;;;;;;4.78;1.58;;;19.30;59.60;;;;;;5031781;28;20026;-49
2024/01/03 05:19:00;;;;;;;2.85;1.55;;;19.30;59.70;;;;;;5032074;28;20030;-51
2024/01/03 05:21:26;;;;;;;2.15;1.50;;;19.30;59.50;;;;;;5032113;28;20026;-51
2024/01/03 05:23:52;;;;;;;3.70;1.75;;;19.30;59.60;;;;;;5030980;28;20034;-50
2024/01/03 05:26:17;;;;;;;4.95;1.80;;;19.30;59.60;;;;;;5031586;28;20155;-47
2024/01/03 05:28:43;;;;;;;3.10;1.80;;;19.30;59.60;;;;;;5031812;28;20060;-50
2024/01/03 05:31:09;;;;;;;3.15;1.70;;;19.30;59.40;;;;;;5031912;28;20479;-48
2024/01/03 05:33:35;;;;;;;4.60;1.77;;;19.30;59.50;;;;;;5030510;28;20084;-53
2024/01/03 05:36:03;;;;;;;4.75;1.70;;;19.30;59.50;;;;;;5030988;28;20533;-53
2024/01/03 05:38:29;;;;;;;3.90;2.03;;;19.30;59.50;;;;;;5013556;28;20056;-49
2024/01/03 05:40:55;;;;;;;3.03;1.70;;;19.30;59.40;;;;;;5030704;28;20409;-53
2024/01/03 05:43:21;;;;;;;3.70;1.90;;;19.30;59.40;;;;;;5031219;28;20429;-51
2024/01/03 05:45:47;;;;;;;2.85;1.73;;;19.30;59.40;;;;;;5031151;28;20041;-52
2024/01/03 05:48:12;;;;;;;3.40;1.90;;;19.30;59.40;;;;;;5031641;28;20037;-53
2024/01/03 05:50:38;;;;;;;3.67;2.00;;;19.30;59.40;;;;;;5031681;28;20497;-49
2024/01/03 05:53:04;;;;;;;3.60;2.00;;;19.30;59.40;;;;;;5031619;28;20111;-52
2024/01/03 05:55:30;;;;;;;4.40;2.10;;;19.30;59.40;;;;;;5031444;28;20049;-52
2024/01/03 05:57:55;;;;;;;3.90;1.95;;;19.30;59.40;;;;;;5031584;28;20022;-56
2024/01/03 06:00:21;;;;;;;3.55;2.08;;;19.30;59.40;;;;;;5031616;28;20461;-56
2024/01/03 06:02:47;;;;;;;3.30;2.00;;;19.20;59.60;;;;;;5031762;28;20112;-55
2024/01/03 06:05:16;;;;;;;5.30;2.20;;;19.30;59.30;;;;;;5031272;28;20120;-54
2024/01/03 06:07:44;;;;;;;4.60;2.23;;;19.30;59.30;;;;;;5031618;28;20428;-56
2024/01/03 06:10:10;;;;;;;5.88;2.35;;;19.30;59.40;;;;;;5031422;28;20076;-53
2024/01/03 06:12:36;;;;;;;4.60;2.45;;;19.20;59.20;;;;;;5031496;28;20025;-53
2024/01/03 06:15:02;;;;;;;4.63;2.13;;;19.30;59.20;;;;;;5031187;28;20496;-53
2024/01/03 06:17:27;;;;;;;5.63;2.58;;;19.30;59.80;;;;;;5031474;28;20501;-51
2024/01/03 06:19:53;;;;;;;7.82;2.50;;;19.30;59.20;;;;;;5031471;28;20556;-54
2024/01/03 06:22:19;;;;;;;5.38;2.35;;;19.30;59.20;;;;;;5031420;28;20113;-54
2024/01/03 06:24:45;;;;;;;4.68;2.50;;;19.30;59.20;;;;;;5031207;28;20116;-55
2024/01/03 06:27:10;;;;;;;5.05;2.67;;;19.20;59.10;;;;;;5031192;28;20029;-54
2024/01/03 06:29:36;;;;;;;3.78;2.20;;;19.30;59.10;;;;;;5030204;28;20026;-52
2024/01/03 06:32:02;;;;;;;4.20;2.38;;;19.20;59.10;;;;;;5031299;28;20083;-55
2024/01/03 06:34:28;;;;;;;4.88;2.20;;;19.30;59.10;;;;;;5030960;28;20025;-56
2024/01/03 06:36:54;;;;;;;4.43;2.50;;;19.30;59.20;;;;;;5030780;28;20095;-56
2024/01/03 06:39:19;;;;;;;7.30;2.42;;;19.30;59.10;;;;;;5031013;28;20037;-51
2024/01/03 06:41:45;;;;;;;4.45;2.63;;;19.30;59.10;;;;;;5031146;28;20037;-55
2024/01/03 06:44:11;;;;;;;5.03;2.47;;;19.30;59.00;;;;;;5031250;28;20501;-56
2024/01/03 06:46:37;;;;;;;6.32;2.40;;;19.30;59.10;;;;;;5030868;28;20026;-55
2024/01/03 06:49:02;;;;;;;5.63;2.70;;;19.30;59.00;;;;;;5031050;28;20041;-51
2024/01/03 06:51:29;;;;;;;6.63;2.70;;;19.30;59.00;;;;;;5029908;28;20030;-53
2024/01/03 06:53:54;;;;;;;4.10;2.20;;;19.30;59.10;;;;;;5033674;28;20026;-50
2024/01/03 06:56:21;;;;;;;4.90;2.40;;;19.30;59.00;;;;;;5034505;28;20032;-54
2024/01/03 06:58:48;;;;;;;6.82;2.55;;;19.30;59.10;;;;;;5034806;28;20029;-55
2024/01/03 07:01:14;;;;;;;6.82;2.67;;;19.30;59.00;;;;;;5033538;28;20142;-53
2024/01/03 07:03:40;;;;;;;5.18;2.70;;;19.30;59.00;;;;;;5034698;28;20029;-49
2024/01/03 07:06:06;;;;;;;4.28;2.30;;;19.30;59.00;;;;;;5034495;28;20036;-56
2024/01/03 07:08:31;;;;;;;4.82;2.67;;;19.30;59.00;;;;;;5034501;28;20025;-56
2024/01/03 07:10:57;;;;;;;7.72;2.92;;;19.30;59.00;;;;;;5033551;28;20492;-54
2024/01/03 07:13:23;;;;;;;7.32;2.50;;;19.30;59.00;;;;;;5034487;28;20072;-50
2024/01/03 07:15:49;;;;;;;4.82;2.33;;;19.30;58.90;;;;;;5034149;28;20026;-56
2024/01/03 07:18:14;;;;;;;3.72;2.00;;;19.30;59.00;;;;;;5034317;28;20037;-55
2024/01/03 07:20:40;;;;;;;5.82;2.70;;;19.30;59.00;;;;;;5034341;28;20030;-57
2024/01/03 07:23:06;;;;;;;4.72;2.25;;;19.30;59.00;;;;;;5034326;28;20030;-53
2024/01/03 07:25:32;;;;;;;5.93;2.75;;;19.30;59.00;;;;;;5034119;28;20025;-56
2024/01/03 07:27:57;;;;;;;5.90;2.80;;;19.30;59.00;;;;;;5034177;28;20029;-56
2024/01/03 07:30:25;;;;;;;6.90;2.70;;;19.30;59.00;;;;;;5033003;28;20036;-56
2024/01/03 07:32:56;;;;;;;4.80;2.47;;;19.30;59.00;;;;;;5034149;28;20029;-48
2024/01/03 07:35:23;;;;;;;4.53;2.20;;;19.30;59.00;;;;;;5033687;28;20065;-55
2024/01/03 07:37:49;;;;;;;4.20;2.60;;;19.30;59.10;;;;;;5032689;28;20025;-56
2024/01/03 07:40:15;;;;;;;4.68;2.40;;;19.30;59.20;;;;;;5033459;28;20033;-53
2024/01/03 07:42:40;;;;;;;5.50;2.80;;;19.30;59.20;;;;;;5033691;28;20069;-57
2024/01/03 07:45:07;;;;;;;4.88;2.60;;;19.30;59.20;;;;;;5033390;28;20037;-57
2024/01/03 07:47:33;;;;;;;4.38;2.40;;;19.30;59.10;;;;;;5033451;28;20030;-57
2024/01/03 07:49:59;;;;;;;5.65;2.42;;;19.30;59.00;;;;;;5032870;28;20040;-53
2024/01/03 07:52:26;;;;;;;4.88;2.60;;;19.30;59.20;;;;;;5033614;28;20021;-55
2024/01/03 07:54:51;;;;;;;5.88;2.33;;;19.30;59.20;;;;;;5032996;28;20651;-51
2024/01/03 07:57:17;;;;;;;5.60;2.58;;;19.30;59.10;;;;;;5033922;28;20026;-53
2024/01/03 07:59:45;;;;;;;5.90;2.78;;;19.30;59.00;;;;;;5033492;28;20037;-55
2024/01/03 08:02:14;;;;;;;7.05;2.25;;;19.30;59.00;;;;;;5033667;28;20026;-56
2024/01/03 08:04:40;;;;;;;5.50;2.77;;;19.30;59.00;;;;;;5032382;28;20029;-49
2024/01/03 08:07:06;;;;;;;5.90;2.63;;;19.30;59.00;;;;;;5033395;28;20268;-55
2024/01/03 08:09:37;;;;;;;5.65;2.90;;;19.40;59.20;;;;;;5033460;28;20026;-54
2024/01/03 08:12:05;;;;;;;5.20;2.42;;;19.30;59.00;;;;;;5033483;28;20104;-54
2024/01/03 08:14:31;;;;;;;5.95;2.58;;;19.40;59.10;;;;;;5033023;28;20060;-57
2024/01/03 08:16:57;;;;;;;6.15;3.00;;;19.40;58.90;;;;;;5033287;28;20053;-56
2024/01/03 08:19:23;;;;;;;5.40;2.80;;;19.40;58.90;;;;;;5032026;28;20065;-48
2024/01/03 08:21:49;;;;;;;5.70;2.78;;;19.40;58.90;;;;;;5033294;28;20036;-56
2024/01/03 08:24:15;;;;;;;6.10;2.78;;;19.40;58.90;;;;;;5033004;28;20492;-56
2024/01/03 08:26:41;;;;;;;5.15;2.78;;;19.40;58.60;;;;;;5032905;28;20025;-50
2024/01/03 08:29:06;;;;;;;5.35;3.10;;;19.40;58.60;;;;;;5033093;28;20052;-54
2024/01/03 08:31:33;;;;;;;5.68;3.00;;;19.40;58.80;;;;;;5032991;28;20076;-55
2024/01/03 08:33:59;;;;;;;6.88;2.95;;;19.40;58.80;;;;;;5032936;28;20021;-51
2024/01/03 08:36:39;;;;;;;6.65;3.17;;;19.40;58.80;;;;;;5032275;28;20033;-56
2024/01/03 08:39:04;;;;;;;;;;;19.40;58.70;;;;;;5033490;28;20485;-56
2024/01/03 08:41:30;;;;;;;6.00;2.60;;;19.40;58.50;;;;;;5031837;28;19909;-57
2024/01/03 08:43:57;;;;;;;6.25;3.03;;;19.40;58.80;;;;;;5032806;28;20025;-54
2024/01/03 08:46:25;;;;;;;6.07;2.97;;;19.40;58.80;;;;;;5032415;28;20120;-57
2024/01/03 08:48:51;;;;;;;6.40;3.10;;;19.40;58.80;;;;;;5032574;28;20026;-57
2024/01/03 08:51:17;;;;;;;5.03;2.97;;;19.40;58.70;;;;;;5032626;28;20132;-56
2024/01/03 08:53:43;;;;;;;7.13;3.15;;;19.40;58.60;;;;;;5032551;28;20024;-55
2024/01/03 08:56:16;;;;;;;6.35;2.92;;;19.40;58.80;;;;;;5032138;28;20021;-56
2024/01/03 08:58:42;;;;;;;6.80;3.00;;;19.40;58.50;;;;;;5032443;28;20160;-52
2024/01/03 09:01:08;;;;;;;8.05;3.38;;;19.40;58.60;;;;;;5032480;28;20025;-50
2024/01/03 09:03:38;;;;;;;5.88;3.17;;;19.40;58.50;;;;;;5032381;28;20108;-50
2024/01/03 09:06:05;;;;;;;8.45;3.10;;;19.40;58.60;;;;;;5031929;28;20497;-54
2024/01/03 09:08:31;;;;;;;6.15;3.05;;;19.40;58.60;;;;;;5032182;28;20489;-54
2024/01/03 09:10:57;;;;;;;6.72;3.28;;;19.40;58.50;;;;;;5032255;28;20113;-56
2024/01/03 09:13:22;;;;;;;5.75;3.10;;;19.40;58.60;;;;;;5032300;28;20052;-55
2024/01/03 09:15:48;;;;;;;6.72;2.75;;;19.40;58.80;;;;;;5031696;28;20067;-56
2024/01/03 09:18:14;;;;;;;7.18;3.17;;;19.40;58.80;;;;;;5032123;28;20041;-51
2024/01/03 09:20:40;;;;;;;5.90;3.20;;;19.40;59.00;;;;;;5031900;28;20084;-56
2024/01/03 09:23:06;;;;;;;6.78;3.40;;;19.40;58.90;;;;;;5031594;28;20029;-50
2024/01/03 09:25:31;;;;;;;6.07;2.95;;;19.30;58.80;;;;;;5031662;28;20045;-55
2024/01/03 09:27:57;;;;;;;6.85;3.35;;;19.40;59.20;;;;;;5031856;28;20025;-54
2024/01/03 09:30:24;;;;;;;7.05;3.30;;;19.30;58.60;;;;;;5032003;28;20057;-56
2024/01/03 09:32:51;;;;;;;6.65;3.42;;;19.30;59.40;;;;;;5032034;28;20467;-53
2024/01/03 09:35:16;;;;;;;8.82;3.17;;;19.30;58.50;;;;;;5031312;28;20076;-55
2024/01/03 09:37:42;;;;;;;5.60;2.67;;;19.30;58.70;;;;;;5031790;28;20069;-53
2024/01/03 09:40:10;;;;;;;11.30;3.03;;;19.40;60.60;;;;;;5031771;28;20025;-57
2024/01/03 09:42:37;;;;;;;9.55;3.05;;;19.40;60.10;;;;;;5031675;28;20025;-51
2024/01/03 09:45:04;;;;;;;7.45;3.13;;;19.40;61.60;;;;;;5031364;28;20025;-56
2024/01/03 09:47:30;;;;;;;20.95;3.20;;;19.50;61.50;;;;;;5031591;28;20029;-57
2024/01/03 09:49:56;;;;;;;10.27;3.47;;;19.40;61.50;;;;;;5031550;28;20137;-57
2024/01/03 09:52:22;;;;;;;10.52;3.03;;;19.40;61.20;;;;;;5031752;28;20033;-56
2024/01/03 09:54:49;;;;;;;12.70;4.90;;;19.50;62.00;;;;;;5031335;28;20492;-55
2024/01/03 09:57:18;;;;;;;10.85;3.08;;;19.50;62.60;;;;;;5031516;28;20034;-55
2024/01/03 09:59:44;;;;;;;6.82;2.50;;;19.50;61.60;;;;;;5031457;28;20516;-56
2024/01/03 10:02:11;;;;;;;9.68;2.22;;;19.40;58.70;;;;;;5031470;28;20018;-57
2024/01/03 10:04:37;;;;;;;12.02;2.50;;;19.40;60.30;;;;;;5031059;28;20091;-53
2024/01/03 10:07:03;;;;;;;6.40;2.10;;;19.40;58.70;;;;;;5013813;28;20033;-57
2024/01/03 10:09:45;;;;;;;10.05;2.90;;;19.40;56.30;;;;;;5031407;28;20033;-55
2024/01/03 10:12:18;;;;;;;13.43;2.92;;;19.50;59.50;;;;;;5031691;28;20025;-56
2024/01/03 10:14:45;;;;;;;6.32;2.50;;;19.50;58.70;;;;;;5031258;28;20774;-54
2024/01/03 10:17:11;;;;;;;10.50;3.35;;;19.50;60.70;;;;;;5031286;28;20026;-54
2024/01/03 10:19:37;;;;;;;14.75;2.75;;;19.60;60.70;;;;;;5022742;28;20108;-51
2024/01/03 10:22:04;;;;;;;6.38;2.88;;;19.60;59.10;;;;;;5015836;28;20561;-53
2024/01/03 10:24:31;;;;;;;9.00;2.70;;;19.60;59.90;;;;;;5016408;28;20461;-55
2024/01/03 10:27:10;;;;;;;13.10;2.10;;;19.60;60.90;;;;;;5017070;28;20445;-56
2024/01/03 10:29:37;;;;;;;9.30;2.43;;;19.60;61.20;;;;;;5021440;28;20037;-56
2024/01/03 10:32:05;;;;;;;8.63;2.53;;;19.70;60.60;;;;;;5016167;28;20030;-53
2024/01/03 10:34:31;;;;;;;11.15;2.75;;;19.70;60.50;;;;;;5024378;28;20021;-54
2024/01/03 10:36:58;;;;;;;11.60;2.50;;;19.70;60.60;;;;;;5020856;28;20513;-53
2024/01/03 10:39:27;;;;;;;6.45;2.40;;;19.70;60.90;;;;;;5021323;28;20032;-56
2024/01/03 10:41:54;;;;;;;9.00;2.55;;;19.60;60.70;;;;;;5023324;28;20030;-53
2024/01/03 10:44:20;;;;;;;8.32;2.58;;;19.70;60.80;;;;;;5024508;28;20084;-56
2024/01/03 10:46:49;;;;;;;6.13;2.50;;;19.70;60.80;;;;;;5017474;28;20022;-56
2024/01/03 10:49:17;;;;;;;6.90;2.88;;;19.60;60.80;;;;;;5016680;28;20029;-53
2024/01/03 10:51:48;;;;;;;6.53;2.38;;;19.70;60.80;;;;;;5020502;28;20056;-53
2024/01/03 10:54:15;;;;;;;6.35;2.80;;;19.60;60.80;;;;;;5020961;28;20029;-51
2024/01/03 10:56:53;;;;;;;11.68;2.33;;;19.60;60.60;;;;;;5021187;28;20026;-57
2024/01/03 10:59:25;;;;;;;6.10;2.80;;;19.60;60.80;;;;;;5024424;28;20056;-54
2024/01/03 11:02:18;;;;;;;11.65;3.05;;;19.70;60.90;;;;;;5021074;28;20026;-53
2024/01/03 11:04:53;;;;;;;6.82;2.65;;;19.60;60.90;;;;;;5021816;28;20057;-55
2024/01/03 11:07:28;;;;;;;7.80;2.60;;;19.60;60.70;;;;;;5024347;28;20025;-54
2024/01/03 11:09:54;;;;;;;6.05;2.55;;;19.60;60.80;;;;;;5022246;28;20033;-56
2024/01/03 11:12:27;;;;;;;5.70;2.70;;;19.60;60.90;;;;;;5020999;28;20409;-55
2024/01/03 11:14:53;;;;;;;5.63;2.40;;;19.60;60.90;;;;;;5017230;28;20052;-56
2024/01/03 11:17:34;;;;;;;7.85;2.40;;;19.60;60.70;;;;;;5022961;28;20030;-52
2024/01/03 11:20:09;;;;;;;7.82;2.83;;;19.60;60.80;;;;;;5020915;28;20033;-55
2024/01/03 11:22:54;;;;;;;7.93;2.65;;;19.60;60.90;;;;;;5020413;28;20029;-51
2024/01/03 11:25:48;;;;;;;6.40;2.60;;;19.60;60.60;;;;;;5017743;28;20040;-54
2024/01/03 11:28:36;;;;;;;4.47;2.15;;;19.60;61.00;;;;;;5017144;28;20116;-53
2024/01/03 11:31:01;;;;;;;5.47;2.80;;;19.60;60.90;;;;;;5020773;28;20076;-54
2024/01/03 11:33:30;;;;;;;7.68;2.80;;;19.60;60.90;;;;;;5018989;28;20493;-50
2024/01/03 11:35:57;;;;;;;7.30;3.00;;;19.60;60.90;;;;;;5010304;28;20519;-55
2024/01/03 11:38:43;;;;;;;7.32;2.55;;;19.60;60.90;;;;;;5023258;28;20025;-54
2024/01/03 11:41:14;;;;;;;5.72;2.60;;;19.60;60.80;;;;;;5022793;28;20029;-55
2024/01/03 11:43:40;;;;;;;6.47;2.60;;;19.60;60.90;;;;;;5012225;28;20038;-53
2024/01/03 11:46:11;;;;;;;5.80;2.72;;;19.60;60.90;;;;;;5033075;22;20061;-53
2024/01/03 11:48:37;;;;;;;4.93;2.22;;;19.60;60.90;;;;;;5010254;28;20125;-54
2024/01/03 11:51:23;;;;;;;6.25;2.53;;;19.60;60.80;;;;;;4994421;28;20030;-57
2024/01/03 11:53:50;;;;;;;6.05;2.55;;;19.70;61.50;;;;;;5011573;28;20052;-56
2024/01/03 11:56:45;;;;;;;6.05;2.78;;;19.70;60.90;;;;;;5009420;28;20041;-56
2024/01/03 11:59:11;;;;;;;7.80;2.45;;;19.70;60.90;;;;;;4969967;28;20046;-56
2024/01/03 12:01:37;;;;;;;7.03;2.83;;;19.70;60.80;;;;;;4969955;28;20038;-57
2024/01/03 12:04:13;;;;;;;8.75;3.20;;;19.70;61.00;;;;;;4953245;28;20125;-59
2024/01/03 12:06:42;;;;;;;6.45;2.65;;;19.60;60.80;;;;;;4969763;28;20499;-59
2024/01/03 12:09:08;;;;;;;6.38;3.05;;;19.60;60.90;;;;;;4969881;28;20066;-64
2024/01/03 12:11:35;;;;;;;6.05;2.83;;;19.70;60.80;;;;;;4969885;28;20038;-60
2024/01/03 12:14:01;;;;;;;8.25;3.35;;;19.60;60.70;;;;;;4958933;28;20078;-59
2024/01/03 12:16:27;;;;;;;6.63;2.92;;;19.70;60.70;;;;;;4969518;28;20064;-59
2024/01/03 12:18:53;;;;;;;5.75;3.00;;;19.70;61.00;;;;;;4969749;28;20030;-58
2024/01/03 12:21:19;;;;;;;14.35;3.75;;;19.60;61.40;;;;;;4969990;28;20061;-59
2024/01/03 12:23:54;;;;;;;7.53;3.00;;;19.60;60.90;;;;;;4951916;28;20065;-58
2024/01/03 12:26:21;;;;;;;7.22;2.92;;;19.60;60.70;;;;;;4954065;28;20042;-59
2024/01/03 12:28:46;;;;;;;7.40;2.80;;;19.60;60.80;;;;;;4946881;28;20047;-60
2024/01/03 12:31:19;;;;;;;6.93;3.15;;;19.60;60.90;;;;;;4961062;28;20514;-59
2024/01/03 12:33:44;;;;;;;6.93;3.00;;;19.60;60.70;;;;;;4967326;28;20114;-57
2024/01/03 12:36:11;;;;;;;6.40;2.95;;;19.60;60.90;;;;;;4999651;28;20114;-60
2024/01/03 12:38:37;;;;;;;6.55;3.08;;;19.60;61.00;;;;;;4998419;28;20519;-58
2024/01/03 12:41:03;;;;;;;6.13;2.80;;;19.60;60.80;;;;;;4989437;28;20030;-59
2024/01/03 12:43:29;;;;;;;6.85;3.00;;;19.60;60.80;;;;;;4989159;28;20411;-58
2024/01/03 12:45:55;;;;;;;8.18;3.33;;;19.60;60.80;;;;;;4995584;28;20033;-56
2024/01/03 12:48:21;;;;;;;8.90;3.08;;;19.60;60.80;;;;;;5000867;28;20034;-59